DGRLG EDVE-ETNL
Flight info
| Callsign | DGRLG |
|---|---|
| Flight time | 0h 54m |
| Altitude | 9000 |
| Route | BATEL6U/08 BATEL BKD/N0178F080 TAGOB DCT LAG |
| Aircraft | DA42/L-SBDGRY/S |
Departure
| Time | 2026-05-05 18:43 |
|---|---|
| Airport | Braunschweig-Wolfsburg Airport (EDVE) |
Arrival
| Time | 2026-05-05 19:38 |
|---|---|
| Airport | Rostock-Laage Airport (ETNL) |
| Time | Latitude | Longitude | Altitude | Speed | Heading |
|---|---|---|---|---|---|
| 2026-05-05 18:29 | 52.31707 | 10.56219 | 287 ft | 0 kts | 83° |
| 2026-05-05 18:34 | 52.31707 | 10.56220 | 287 ft | 0 kts | 84° |
| 2026-05-05 18:35 | 52.31709 | 10.56226 | 287 ft | 3 kts | 42° |
| 2026-05-05 18:35 | 52.31732 | 10.56228 | 288 ft | 4 kts | 358° |
| 2026-05-05 18:35 | 52.31741 | 10.56189 | 288 ft | 8 kts | 264° |
| 2026-05-05 18:36 | 52.31735 | 10.56067 | 287 ft | 13 kts | 269° |
| 2026-05-05 18:36 | 52.31725 | 10.55891 | 286 ft | 18 kts | 264° |
| 2026-05-05 18:36 | 52.31713 | 10.55678 | 285 ft | 19 kts | 264° |
| 2026-05-05 18:36 | 52.31701 | 10.55456 | 286 ft | 20 kts | 265° |
| 2026-05-05 18:37 | 52.31688 | 10.55224 | 285 ft | 21 kts | 265° |
| 2026-05-05 18:37 | 52.31675 | 10.54995 | 286 ft | 21 kts | 264° |
| 2026-05-05 18:37 | 52.31660 | 10.54746 | 280 ft | 23 kts | 264° |
| 2026-05-05 18:37 | 52.31648 | 10.54511 | 278 ft | 16 kts | 269° |
| 2026-05-05 18:38 | 52.31685 | 10.54425 | 276 ft | 1 kts | 354° |
| 2026-05-05 18:42 | 52.31693 | 10.54423 | 276 ft | 6 kts | 350° |
| 2026-05-05 18:42 | 52.31768 | 10.54411 | 279 ft | 14 kts | 351° |
| 2026-05-05 18:42 | 52.31855 | 10.54456 | 281 ft | 15 kts | 70° |
| 2026-05-05 18:42 | 52.31872 | 10.54709 | 282 ft | 43 kts | 84° |
| 2026-05-05 18:43 | 52.31915 | 10.55456 | 306 ft | 80 kts | 85° |
| 2026-05-05 18:43 | 52.31935 | 10.56372 | 527 ft | 85 kts | 88° |
| 2026-05-05 18:43 | 52.31970 | 10.57361 | 790 ft | 91 kts | 81° |
| 2026-05-05 18:43 | 52.32047 | 10.58350 | 1183 ft | 85 kts | 81° |
| 2026-05-05 18:44 | 52.32109 | 10.59283 | 1536 ft | 82 kts | 78° |
| 2026-05-05 18:44 | 52.32170 | 10.60210 | 1861 ft | 82 kts | 80° |
| 2026-05-05 18:44 | 52.32303 | 10.61108 | 2203 ft | 82 kts | 68° |
| 2026-05-05 18:44 | 52.32500 | 10.61996 | 2513 ft | 84 kts | 69° |
| 2026-05-05 18:45 | 52.32697 | 10.62892 | 2788 ft | 85 kts | 68° |
| 2026-05-05 18:45 | 52.32901 | 10.63815 | 3038 ft | 88 kts | 68° |
| 2026-05-05 18:45 | 52.33108 | 10.64753 | 3277 ft | 88 kts | 69° |
| 2026-05-05 18:45 | 52.33316 | 10.65698 | 3520 ft | 89 kts | 69° |
| 2026-05-05 18:46 | 52.33530 | 10.66675 | 3735 ft | 92 kts | 70° |
| 2026-05-05 18:46 | 52.33768 | 10.67721 | 3937 ft | 101 kts | 69° |
| 2026-05-05 18:46 | 52.33994 | 10.68753 | 4302 ft | 94 kts | 70° |
| 2026-05-05 18:46 | 52.34217 | 10.69774 | 4579 ft | 97 kts | 70° |
| 2026-05-05 18:47 | 52.34444 | 10.70820 | 4862 ft | 98 kts | 70° |
| 2026-05-05 18:47 | 52.34673 | 10.71873 | 5134 ft | 99 kts | 70° |
| 2026-05-05 18:47 | 52.34905 | 10.72940 | 5429 ft | 100 kts | 70° |
| 2026-05-05 18:47 | 52.35137 | 10.74003 | 5713 ft | 101 kts | 70° |
| 2026-05-05 18:48 | 52.35374 | 10.75089 | 6004 ft | 102 kts | 70° |
| 2026-05-05 18:48 | 52.35614 | 10.76190 | 6291 ft | 103 kts | 70° |
| 2026-05-05 18:48 | 52.35857 | 10.77304 | 6556 ft | 105 kts | 70° |
| 2026-05-05 18:48 | 52.36104 | 10.78435 | 6832 ft | 105 kts | 71° |
| 2026-05-05 18:49 | 52.36386 | 10.79547 | 7108 ft | 107 kts | 54° |
| 2026-05-05 18:49 | 52.36886 | 10.80430 | 7399 ft | 106 kts | 44° |
| 2026-05-05 18:49 | 52.37413 | 10.81297 | 7661 ft | 109 kts | 44° |
| 2026-05-05 18:49 | 52.37947 | 10.82176 | 7947 ft | 110 kts | 44° |
| 2026-05-05 18:50 | 52.38486 | 10.83062 | 8202 ft | 111 kts | 43° |
| 2026-05-05 18:50 | 52.39032 | 10.83963 | 8461 ft | 111 kts | 43° |
| 2026-05-05 18:50 | 52.39581 | 10.84869 | 8716 ft | 111 kts | 44° |
| 2026-05-05 18:50 | 52.40134 | 10.85784 | 8859 ft | 120 kts | 44° |
| 2026-05-05 18:51 | 52.40763 | 10.86826 | 8867 ft | 136 kts | 44° |
| 2026-05-05 18:51 | 52.41455 | 10.87975 | 8870 ft | 146 kts | 44° |
| 2026-05-05 18:51 | 52.42180 | 10.89175 | 8872 ft | 153 kts | 44° |
| 2026-05-05 18:51 | 52.42941 | 10.90435 | 8868 ft | 158 kts | 44° |
| 2026-05-05 18:52 | 52.43721 | 10.91725 | 8867 ft | 161 kts | 44° |
| 2026-05-05 18:52 | 52.44514 | 10.93036 | 8871 ft | 163 kts | 44° |
| 2026-05-05 18:52 | 52.45317 | 10.94368 | 8870 ft | 164 kts | 44° |
| 2026-05-05 18:52 | 52.46121 | 10.95702 | 8870 ft | 165 kts | 44° |
| 2026-05-05 18:53 | 52.46927 | 10.97038 | 8871 ft | 165 kts | 44° |
| 2026-05-05 18:53 | 52.47734 | 10.98376 | 8870 ft | 165 kts | 44° |
| 2026-05-05 18:53 | 52.48541 | 10.99717 | 8874 ft | 165 kts | 44° |
| 2026-05-05 18:53 | 52.49345 | 11.01054 | 8879 ft | 164 kts | 44° |
| 2026-05-05 18:54 | 52.50147 | 11.02390 | 8867 ft | 164 kts | 44° |
| 2026-05-05 18:54 | 52.50952 | 11.03730 | 8875 ft | 165 kts | 44° |
| 2026-05-05 18:54 | 52.51764 | 11.05082 | 8875 ft | 166 kts | 44° |
| 2026-05-05 18:54 | 52.52575 | 11.06436 | 8871 ft | 167 kts | 44° |
| 2026-05-05 18:55 | 52.53390 | 11.07794 | 8872 ft | 167 kts | 45° |
| 2026-05-05 18:55 | 52.54193 | 11.09132 | 8878 ft | 167 kts | 45° |
| 2026-05-05 18:55 | 52.55090 | 11.10327 | 8876 ft | 166 kts | 28° |
| 2026-05-05 18:55 | 52.56129 | 11.11140 | 8869 ft | 165 kts | 17° |
| 2026-05-05 18:56 | 52.57218 | 11.11734 | 8872 ft | 165 kts | 16° |
| 2026-05-05 18:56 | 52.58303 | 11.12341 | 8870 ft | 165 kts | 17° |
| 2026-05-05 18:56 | 52.59386 | 11.12980 | 8871 ft | 165 kts | 18° |
| 2026-05-05 18:56 | 52.60464 | 11.13627 | 8874 ft | 165 kts | 18° |
| 2026-05-05 18:57 | 52.61543 | 11.14274 | 8871 ft | 165 kts | 18° |
| 2026-05-05 18:57 | 52.62620 | 11.14922 | 8871 ft | 164 kts | 18° |
| 2026-05-05 18:57 | 52.63680 | 11.15566 | 8876 ft | 165 kts | 21° |
| 2026-05-05 18:57 | 52.64731 | 11.16342 | 8838 ft | 166 kts | 17° |
| 2026-05-05 18:58 | 52.65824 | 11.16915 | 8854 ft | 163 kts | 16° |
| 2026-05-05 18:58 | 52.66893 | 11.17561 | 8874 ft | 164 kts | 19° |
| 2026-05-05 18:58 | 52.67956 | 11.18229 | 8871 ft | 163 kts | 18° |
| 2026-05-05 18:58 | 52.69024 | 11.18886 | 8872 ft | 164 kts | 18° |
| 2026-05-05 18:59 | 52.70097 | 11.19534 | 8871 ft | 165 kts | 17° |
| 2026-05-05 18:59 | 52.71175 | 11.20175 | 8872 ft | 165 kts | 17° |
| 2026-05-05 18:59 | 52.72253 | 11.20822 | 8882 ft | 165 kts | 18° |
| 2026-05-05 18:59 | 52.73333 | 11.21474 | 8886 ft | 165 kts | 17° |
| 2026-05-05 19:00 | 52.74415 | 11.22125 | 8886 ft | 165 kts | 18° |
| 2026-05-05 19:00 | 52.75498 | 11.22779 | 8882 ft | 166 kts | 18° |
| 2026-05-05 19:00 | 52.76583 | 11.23435 | 8879 ft | 166 kts | 17° |
| 2026-05-05 19:00 | 52.77663 | 11.24088 | 8880 ft | 165 kts | 18° |
| 2026-05-05 19:01 | 52.78738 | 11.24738 | 8893 ft | 164 kts | 18° |
| 2026-05-05 19:01 | 52.79814 | 11.25389 | 8880 ft | 165 kts | 17° |
| 2026-05-05 19:01 | 52.80888 | 11.26032 | 8891 ft | 164 kts | 18° |
| 2026-05-05 19:01 | 52.81959 | 11.26681 | 8883 ft | 164 kts | 18° |
| 2026-05-05 19:02 | 52.82664 | 11.27110 | 8888 ft | 163 kts | 18° |
| 2026-05-05 19:02 | 52.84094 | 11.27980 | 8886 ft | 163 kts | 18° |
| 2026-05-05 19:02 | 52.85149 | 11.28621 | 8883 ft | 164 kts | 18° |
| 2026-05-05 19:02 | 52.86218 | 11.29269 | 8889 ft | 163 kts | 18° |
| 2026-05-05 19:03 | 52.87287 | 11.29919 | 8884 ft | 163 kts | 18° |
| 2026-05-05 19:03 | 52.88352 | 11.30566 | 8888 ft | 163 kts | 17° |
| 2026-05-05 19:03 | 52.89418 | 11.31214 | 8884 ft | 163 kts | 18° |
| 2026-05-05 19:03 | 52.90489 | 11.31865 | 8889 ft | 164 kts | 18° |
| 2026-05-05 19:04 | 52.91560 | 11.32517 | 8890 ft | 164 kts | 17° |
| 2026-05-05 19:04 | 52.92630 | 11.33169 | 8890 ft | 163 kts | 18° |
| 2026-05-05 19:04 | 52.93337 | 11.33600 | 8889 ft | 164 kts | 17° |
| 2026-05-05 19:04 | 52.94405 | 11.34251 | 8892 ft | 164 kts | 17° |
| 2026-05-05 19:05 | 52.95478 | 11.34904 | 8891 ft | 164 kts | 18° |
| 2026-05-05 19:05 | 52.96549 | 11.35558 | 8891 ft | 164 kts | 18° |
| 2026-05-05 19:05 | 52.97620 | 11.36211 | 8896 ft | 164 kts | 18° |
| 2026-05-05 19:05 | 52.98686 | 11.36863 | 8890 ft | 163 kts | 18° |
| 2026-05-05 19:06 | 52.99754 | 11.37515 | 8893 ft | 164 kts | 18° |
| 2026-05-05 19:06 | 53.00822 | 11.38168 | 8891 ft | 163 kts | 18° |
| 2026-05-05 19:06 | 53.01890 | 11.38821 | 8896 ft | 163 kts | 18° |
| 2026-05-05 19:06 | 53.02956 | 11.39474 | 8892 ft | 164 kts | 17° |
| 2026-05-05 19:07 | 53.04026 | 11.40129 | 8892 ft | 164 kts | 18° |
| 2026-05-05 19:07 | 53.05099 | 11.40787 | 8895 ft | 165 kts | 17° |
| 2026-05-05 19:07 | 53.06173 | 11.41445 | 8892 ft | 165 kts | 18° |
| 2026-05-05 19:07 | 53.07251 | 11.42105 | 8893 ft | 165 kts | 18° |
| 2026-05-05 19:08 | 53.08314 | 11.42758 | 8895 ft | 165 kts | 18° |
| 2026-05-05 19:08 | 53.09407 | 11.43429 | 8894 ft | 165 kts | 18° |
| 2026-05-05 19:08 | 53.10472 | 11.44083 | 8897 ft | 165 kts | 18° |
| 2026-05-05 19:08 | 53.11549 | 11.44745 | 8894 ft | 165 kts | 18° |
| 2026-05-05 19:09 | 53.12624 | 11.45406 | 8895 ft | 164 kts | 19° |
| 2026-05-05 19:09 | 53.13698 | 11.46067 | 8896 ft | 164 kts | 18° |
| 2026-05-05 19:09 | 53.14771 | 11.46728 | 8894 ft | 165 kts | 18° |
| 2026-05-05 19:09 | 53.15844 | 11.47388 | 8899 ft | 164 kts | 18° |
| 2026-05-05 19:10 | 53.16917 | 11.48049 | 8892 ft | 164 kts | 18° |
| 2026-05-05 19:10 | 53.17987 | 11.48709 | 8892 ft | 164 kts | 18° |
| 2026-05-05 19:10 | 53.19058 | 11.49370 | 8915 ft | 164 kts | 18° |
| 2026-05-05 19:10 | 53.20129 | 11.50031 | 8895 ft | 164 kts | 17° |
| 2026-05-05 19:11 | 53.21202 | 11.50693 | 8899 ft | 164 kts | 18° |
| 2026-05-05 19:11 | 53.22270 | 11.51353 | 8899 ft | 163 kts | 18° |
| 2026-05-05 19:11 | 53.23338 | 11.52013 | 8901 ft | 164 kts | 17° |
| 2026-05-05 19:11 | 53.24408 | 11.52674 | 8899 ft | 164 kts | 17° |
| 2026-05-05 19:12 | 53.25483 | 11.53339 | 8897 ft | 164 kts | 18° |
| 2026-05-05 19:12 | 53.26556 | 11.54005 | 8901 ft | 165 kts | 18° |
| 2026-05-05 19:12 | 53.27616 | 11.54661 | 8897 ft | 164 kts | 18° |
| 2026-05-05 19:12 | 53.28686 | 11.55326 | 8904 ft | 164 kts | 17° |
| 2026-05-05 19:13 | 53.29754 | 11.55988 | 8893 ft | 164 kts | 17° |
| 2026-05-05 19:13 | 53.30823 | 11.56649 | 8898 ft | 164 kts | 18° |
| 2026-05-05 19:13 | 53.31892 | 11.57312 | 8895 ft | 163 kts | 18° |
| 2026-05-05 19:13 | 53.32957 | 11.57976 | 8898 ft | 163 kts | 17° |
| 2026-05-05 19:14 | 53.34020 | 11.58636 | 8897 ft | 163 kts | 18° |
| 2026-05-05 19:14 | 53.35085 | 11.59299 | 8902 ft | 164 kts | 17° |
| 2026-05-05 19:14 | 53.36152 | 11.59963 | 8898 ft | 163 kts | 18° |
| 2026-05-05 19:14 | 53.37216 | 11.60624 | 8902 ft | 163 kts | 18° |
| 2026-05-05 19:15 | 53.38279 | 11.61287 | 8898 ft | 164 kts | 17° |
| 2026-05-05 19:15 | 53.39348 | 11.61954 | 8904 ft | 164 kts | 18° |
| 2026-05-05 19:15 | 53.40411 | 11.62616 | 8900 ft | 165 kts | 18° |
| 2026-05-05 19:15 | 53.41488 | 11.63287 | 8899 ft | 165 kts | 18° |
| 2026-05-05 19:16 | 53.42564 | 11.63959 | 8901 ft | 165 kts | 18° |
| 2026-05-05 19:16 | 53.43639 | 11.64630 | 8901 ft | 165 kts | 17° |
| 2026-05-05 19:16 | 53.44717 | 11.65304 | 8909 ft | 166 kts | 17° |
| 2026-05-05 19:16 | 53.45802 | 11.65981 | 8898 ft | 167 kts | 18° |
| 2026-05-05 19:17 | 53.46898 | 11.66667 | 8898 ft | 168 kts | 18° |
| 2026-05-05 19:17 | 53.47994 | 11.67352 | 8898 ft | 168 kts | 18° |
| 2026-05-05 19:17 | 53.49082 | 11.68036 | 8897 ft | 166 kts | 18° |
| 2026-05-05 19:17 | 53.50164 | 11.68714 | 8897 ft | 166 kts | 18° |
| 2026-05-05 19:18 | 53.51244 | 11.69390 | 8896 ft | 165 kts | 18° |
| 2026-05-05 19:18 | 53.52320 | 11.70065 | 8897 ft | 165 kts | 18° |
| 2026-05-05 19:18 | 53.53395 | 11.70739 | 8897 ft | 165 kts | 18° |
| 2026-05-05 19:18 | 53.54471 | 11.71415 | 8897 ft | 165 kts | 18° |
| 2026-05-05 19:19 | 53.55542 | 11.72088 | 8897 ft | 164 kts | 18° |
| 2026-05-05 19:19 | 53.56612 | 11.72762 | 8896 ft | 164 kts | 18° |
| 2026-05-05 19:19 | 53.57677 | 11.73431 | 8903 ft | 163 kts | 18° |
| 2026-05-05 19:19 | 53.58740 | 11.74099 | 8903 ft | 163 kts | 18° |
| 2026-05-05 19:20 | 53.59807 | 11.74770 | 8898 ft | 164 kts | 17° |
| 2026-05-05 19:20 | 53.60861 | 11.75435 | 8898 ft | 164 kts | 17° |
| 2026-05-05 19:20 | 53.61927 | 11.76108 | 8899 ft | 163 kts | 18° |
| 2026-05-05 19:20 | 53.62990 | 11.76779 | 8900 ft | 163 kts | 18° |
| 2026-05-05 19:21 | 53.64056 | 11.77450 | 8898 ft | 163 kts | 18° |
| 2026-05-05 19:21 | 53.65120 | 11.78122 | 8900 ft | 163 kts | 18° |
| 2026-05-05 19:21 | 53.66182 | 11.78793 | 8899 ft | 163 kts | 17° |
| 2026-05-05 19:21 | 53.67245 | 11.79463 | 8908 ft | 163 kts | 18° |
| 2026-05-05 19:22 | 53.68269 | 11.80115 | 8904 ft | 149 kts | 18° |
| 2026-05-05 19:22 | 53.69213 | 11.80715 | 8769 ft | 145 kts | 18° |
| 2026-05-05 19:22 | 53.70165 | 11.81316 | 8585 ft | 145 kts | 18° |
| 2026-05-05 19:22 | 53.71108 | 11.81912 | 8416 ft | 144 kts | 18° |
| 2026-05-05 19:23 | 53.72047 | 11.82506 | 8243 ft | 142 kts | 18° |
| 2026-05-05 19:23 | 53.72958 | 11.83086 | 7950 ft | 142 kts | 18° |
| 2026-05-05 19:23 | 53.73882 | 11.83672 | 7662 ft | 141 kts | 18° |
| 2026-05-05 19:23 | 53.74803 | 11.84255 | 7396 ft | 141 kts | 18° |
| 2026-05-05 19:24 | 53.75712 | 11.84831 | 7135 ft | 139 kts | 17° |
| 2026-05-05 19:24 | 53.76617 | 11.85405 | 6869 ft | 138 kts | 18° |
| 2026-05-05 19:24 | 53.77499 | 11.85965 | 6457 ft | 138 kts | 18° |
| 2026-05-05 19:24 | 53.78397 | 11.86535 | 6201 ft | 135 kts | 19° |
| 2026-05-05 19:25 | 53.79268 | 11.87088 | 5931 ft | 133 kts | 19° |
| 2026-05-05 19:25 | 53.80125 | 11.87633 | 5653 ft | 134 kts | 19° |
| 2026-05-05 19:25 | 53.80979 | 11.88172 | 5408 ft | 130 kts | 20° |
| 2026-05-05 19:25 | 53.81825 | 11.88709 | 5109 ft | 129 kts | 21° |
| 2026-05-05 19:26 | 53.82657 | 11.89241 | 4849 ft | 127 kts | 22° |
| 2026-05-05 19:26 | 53.83484 | 11.89769 | 4574 ft | 126 kts | 22° |
| 2026-05-05 19:26 | 53.84297 | 11.90286 | 4339 ft | 124 kts | 21° |
| 2026-05-05 19:26 | 53.85099 | 11.90768 | 4158 ft | 120 kts | 22° |
| 2026-05-05 19:27 | 53.85871 | 11.91253 | 4031 ft | 115 kts | 22° |
| 2026-05-05 19:27 | 53.86617 | 11.91607 | 3997 ft | 110 kts | 4° |
| 2026-05-05 19:27 | 53.87364 | 11.91382 | 3961 ft | 107 kts | 4° |
| 2026-05-05 19:27 | 53.88087 | 11.91547 | 3984 ft | 104 kts | 13° |
| 2026-05-05 19:28 | 53.88801 | 11.91754 | 4003 ft | 104 kts | 14° |
| 2026-05-05 19:28 | 53.89502 | 11.92007 | 4013 ft | 104 kts | 14° |
| 2026-05-05 19:28 | 53.90222 | 11.92209 | 4016 ft | 105 kts | 13° |
| 2026-05-05 19:28 | 53.90937 | 11.92429 | 4018 ft | 104 kts | 14° |
| 2026-05-05 19:29 | 53.91654 | 11.92643 | 3994 ft | 105 kts | 13° |
| 2026-05-05 19:29 | 53.92377 | 11.92815 | 3998 ft | 105 kts | 10° |
| 2026-05-05 19:29 | 53.93104 | 11.92975 | 3980 ft | 105 kts | 11° |
| 2026-05-05 19:29 | 53.93777 | 11.93351 | 3973 ft | 100 kts | 42° |
| 2026-05-05 19:30 | 53.94072 | 11.94402 | 3916 ft | 103 kts | 78° |
| 2026-05-05 19:30 | 53.94198 | 11.95618 | 3831 ft | 105 kts | 81° |
| 2026-05-05 19:30 | 53.94225 | 11.96847 | 3730 ft | 105 kts | 94° |
| 2026-05-05 19:30 | 53.94112 | 11.98074 | 3648 ft | 104 kts | 96° |
| 2026-05-05 19:31 | 53.93993 | 11.99292 | 3494 ft | 105 kts | 96° |
| 2026-05-05 19:31 | 53.93884 | 12.00488 | 3380 ft | 102 kts | 94° |
| 2026-05-05 19:31 | 53.93816 | 12.01652 | 3299 ft | 97 kts | 90° |
| 2026-05-05 19:31 | 53.93740 | 12.02794 | 3165 ft | 97 kts | 93° |
| 2026-05-05 19:32 | 53.93648 | 12.03911 | 3009 ft | 95 kts | 94° |
| 2026-05-05 19:32 | 53.93558 | 12.05022 | 2887 ft | 94 kts | 92° |
| 2026-05-05 19:32 | 53.93462 | 12.06112 | 2767 ft | 92 kts | 91° |
| 2026-05-05 19:32 | 53.93391 | 12.07195 | 2635 ft | 93 kts | 89° |
| 2026-05-05 19:33 | 53.93336 | 12.08284 | 2526 ft | 92 kts | 89° |
| 2026-05-05 19:33 | 53.93260 | 12.09351 | 2416 ft | 90 kts | 91° |
| 2026-05-05 19:33 | 53.93179 | 12.10399 | 2273 ft | 89 kts | 90° |
| 2026-05-05 19:33 | 53.93093 | 12.11436 | 2060 ft | 88 kts | 91° |
| 2026-05-05 19:34 | 53.93010 | 12.12478 | 1860 ft | 89 kts | 91° |
| 2026-05-05 19:34 | 53.92936 | 12.13516 | 1758 ft | 85 kts | 91° |
| 2026-05-05 19:34 | 53.92859 | 12.14496 | 1640 ft | 84 kts | 91° |
| 2026-05-05 19:35 | 53.92717 | 12.16467 | 1385 ft | 86 kts | 92° |
| 2026-05-05 19:35 | 53.92642 | 12.17484 | 1271 ft | 88 kts | 94° |
| 2026-05-05 19:35 | 53.92555 | 12.18518 | 1123 ft | 89 kts | 92° |
| 2026-05-05 19:35 | 53.92480 | 12.19547 | 988 ft | 81 kts | 94° |
| 2026-05-05 19:36 | 53.92404 | 12.20461 | 857 ft | 79 kts | 93° |
| 2026-05-05 19:36 | 53.92328 | 12.21387 | 724 ft | 79 kts | 94° |
| 2026-05-05 19:36 | 53.92255 | 12.22291 | 601 ft | 76 kts | 93° |
| 2026-05-05 19:36 | 53.92189 | 12.23201 | 524 ft | 79 kts | 94° |
| 2026-05-05 19:37 | 53.92112 | 12.24114 | 419 ft | 79 kts | 93° |
| 2026-05-05 19:37 | 53.92042 | 12.25037 | 299 ft | 79 kts | 96° |
| 2026-05-05 19:37 | 53.91966 | 12.25955 | 184 ft | 77 kts | 93° |
| 2026-05-05 19:37 | 53.91903 | 12.26777 | 144 ft | 53 kts | 98° |
| 2026-05-05 19:38 | 53.91870 | 12.27162 | 141 ft | 14 kts | 110° |
| 2026-05-05 19:38 | 53.91792 | 12.27194 | 140 ft | 15 kts | 185° |
| 2026-05-05 19:38 | 53.91695 | 12.27172 | 140 ft | 10 kts | 186° |
| 2026-05-05 19:38 | 53.91651 | 12.27252 | 140 ft | 13 kts | 96° |
| 2026-05-05 19:39 | 53.91637 | 12.27420 | 139 ft | 16 kts | 98° |
| 2026-05-05 19:39 | 53.91621 | 12.27611 | 137 ft | 17 kts | 97° |
| 2026-05-05 19:39 | 53.91606 | 12.27815 | 136 ft | 18 kts | 97° |
| 2026-05-05 19:39 | 53.91589 | 12.28024 | 134 ft | 18 kts | 98° |
| 2026-05-05 19:40 | 53.91571 | 12.28244 | 133 ft | 20 kts | 97° |
| 2026-05-05 19:40 | 53.91551 | 12.28489 | 128 ft | 20 kts | 97° |
| 2026-05-05 19:40 | 53.91522 | 12.28660 | 129 ft | 6 kts | 163° |
| 2026-05-05 19:40 | 53.91501 | 12.28627 | 128 ft | 1 kts | 187° |
| 2026-05-05 19:41 | 53.91497 | 12.28627 | 128 ft | 0 kts | 195° |
| 2026-05-05 19:41 | 53.91496 | 12.28627 | 128 ft | 0 kts | 200° |